createdAt,value
2023-05-20T00:00:53.683Z,44.15
2023-05-20T00:01:53.669Z,49.47
2023-05-20T00:02:53.773Z,43.51
2023-05-20T00:03:53.832Z,42.70
2023-05-20T00:04:53.999Z,41.41
2023-05-20T00:05:53.659Z,45.60
2023-05-20T00:06:53.749Z,55.27
2023-05-20T00:07:53.618Z,44.79
2023-05-20T00:08:53.632Z,44.15
2023-05-20T00:09:53.608Z,52.53
2023-05-20T00:10:53.607Z,50.11
2023-05-20T00:11:53.598Z,49.79
2023-05-20T00:12:53.603Z,48.18
2023-05-20T00:13:53.595Z,46.73
2023-05-20T00:14:54.621Z,47.05
2023-05-20T00:15:54.575Z,47.05
2023-05-20T00:16:53.975Z,47.37
2023-05-20T00:17:53.581Z,46.08
2023-05-20T00:18:53.574Z,46.25
2023-05-20T00:19:53.530Z,47.37
2023-05-20T00:22:42.924Z,45.60
2023-05-20T00:23:42.919Z,52.05
2023-05-20T00:24:42.897Z,45.28
2023-05-20T00:25:43.991Z,46.89
2023-05-20T00:26:43.988Z,48.02
2023-05-20T00:27:43.972Z,47.86
2023-05-20T00:28:43.980Z,49.47
2023-05-20T00:29:43.962Z,46.41
2023-05-20T00:30:43.941Z,48.98
2023-05-20T00:31:44.020Z,51.40
2023-05-20T00:32:43.989Z,47.86
2023-05-20T00:33:43.923Z,47.37
2023-05-20T00:34:43.908Z,47.37
2023-05-20T00:35:43.909Z,48.66
2023-05-20T00:36:43.895Z,55.59
2023-05-20T00:37:43.907Z,49.15
2023-05-20T00:38:43.916Z,44.96
2023-05-20T00:39:43.902Z,48.18
2023-05-20T00:40:43.881Z,49.79
2023-05-20T00:41:43.865Z,52.85
2023-05-20T00:42:43.897Z,45.60
2023-05-20T00:43:43.841Z,46.25
2023-05-20T00:44:43.911Z,43.83
2023-05-20T00:45:43.832Z,44.63
2023-05-20T00:46:43.826Z,42.86
2023-05-20T00:47:43.864Z,50.76
2023-05-20T00:48:43.821Z,51.88
2023-05-20T00:49:43.800Z,52.05
2023-05-20T00:50:43.779Z,49.47
2023-05-20T00:51:43.789Z,56.40
2023-05-20T00:52:43.796Z,43.51
2023-05-20T00:53:43.771Z,45.44
2023-05-20T00:54:43.755Z,48.82
2023-05-20T00:55:43.758Z,43.67
2023-05-20T00:56:43.741Z,42.22
2023-05-20T00:57:43.746Z,45.12
2023-05-20T00:58:43.791Z,47.37
2023-05-20T00:59:44.912Z,44.31
2023-05-20T01:00:44.739Z,57.69
2023-05-20T01:01:44.347Z,48.50
2023-05-20T01:02:43.784Z,48.34
2023-05-20T01:03:43.721Z,49.31
2023-05-20T01:04:43.693Z,50.76
2023-05-20T01:05:43.709Z,44.96
2023-05-20T01:06:43.676Z,54.14
2023-05-20T01:07:43.655Z,46.41
2023-05-20T01:08:44.456Z,42.38
2023-05-20T01:09:43.632Z,51.40
2023-05-20T01:10:43.620Z,53.82
2023-05-20T01:11:43.633Z,47.86
2023-05-20T01:12:43.613Z,46.89
2023-05-20T01:13:43.619Z,41.09
2023-05-20T01:14:43.599Z,41.41
2023-05-20T01:15:43.629Z,41.89
2023-05-20T01:16:43.577Z,41.89
2023-05-20T01:17:44.337Z,43.67
2023-05-20T01:18:43.642Z,47.37
2023-05-20T01:19:43.563Z,44.15
2023-05-20T01:20:43.577Z,53.17
2023-05-20T01:21:43.549Z,48.82
2023-05-20T01:22:43.554Z,52.21
2023-05-20T01:23:44.255Z,51.40
2023-05-20T01:24:43.512Z,45.28
2023-05-20T01:25:43.531Z,44.31
2023-05-20T01:26:43.509Z,44.15
2023-05-20T01:27:43.511Z,51.40
2023-05-20T01:28:43.482Z,43.18
2023-05-20T01:29:43.503Z,50.92
2023-05-20T01:30:44.553Z,45.60
2023-05-20T01:31:43.493Z,51.88
2023-05-20T01:32:43.498Z,43.83
2023-05-20T01:33:43.463Z,55.91
2023-05-20T01:34:43.457Z,54.30
2023-05-20T01:35:43.448Z,54.62
2023-05-20T01:36:43.445Z,47.86
2023-05-20T01:37:43.446Z,47.70
2023-05-20T01:38:43.417Z,47.37
2023-05-20T01:39:43.427Z,46.57
2023-05-20T01:40:43.418Z,48.02
2023-05-20T01:41:43.403Z,42.06
2023-05-20T01:42:43.393Z,44.15
2023-05-20T01:43:43.377Z,46.08
2023-05-20T01:44:43.372Z,41.73
2023-05-20T01:45:43.400Z,44.63
2023-05-20T01:46:43.457Z,44.63
2023-05-20T01:47:43.381Z,42.54
2023-05-20T01:48:43.345Z,41.89
2023-05-20T01:49:43.341Z,46.41
2023-05-20T01:50:43.334Z,43.34
2023-05-20T01:51:43.305Z,41.09
2023-05-20T01:52:43.309Z,44.31
2023-05-20T01:53:43.293Z,43.99
2023-05-20T01:54:43.293Z,49.15
2023-05-20T01:55:43.294Z,45.12
2023-05-20T01:56:43.293Z,47.05
2023-05-20T01:57:43.265Z,41.57
2023-05-20T01:58:43.258Z,42.54
2023-05-20T01:59:43.248Z,46.41
2023-05-20T02:00:43.887Z,47.21
2023-05-20T02:01:43.300Z,44.31
2023-05-20T02:02:43.400Z,46.73
2023-05-20T02:03:43.232Z,41.57
2023-05-20T02:04:43.199Z,45.60
2023-05-20T02:05:43.286Z,45.44
2023-05-20T02:06:43.184Z,44.79
2023-05-20T02:07:43.906Z,44.31
2023-05-20T02:08:43.301Z,41.41
2023-05-20T02:09:43.197Z,40.12
2023-05-20T02:10:43.167Z,40.61
2023-05-20T02:11:43.151Z,47.37
2023-05-20T02:12:43.185Z,47.21
2023-05-20T02:13:43.146Z,42.06
2023-05-20T02:14:43.116Z,40.93
2023-05-20T02:15:43.101Z,44.31
2023-05-20T02:16:43.157Z,48.66
2023-05-20T02:17:43.112Z,47.70
2023-05-20T02:18:43.438Z,44.96
2023-05-20T02:19:43.079Z,44.31
2023-05-20T02:20:43.073Z,43.67
2023-05-20T02:21:43.062Z,45.12
2023-05-20T02:22:43.079Z,49.95
2023-05-20T02:23:43.054Z,41.73
2023-05-20T02:24:43.082Z,49.79
2023-05-20T02:25:43.066Z,42.06
2023-05-20T02:26:43.034Z,42.54
2023-05-20T02:27:43.019Z,48.66
2023-05-20T02:28:43.026Z,44.79
2023-05-20T02:29:43.018Z,45.60
2023-05-20T02:30:43.007Z,41.41
2023-05-20T02:31:43.007Z,42.22
2023-05-20T02:32:42.987Z,45.28
2023-05-20T02:33:43.054Z,45.76
2023-05-20T02:34:43.858Z,43.83
2023-05-20T02:35:42.953Z,40.93
2023-05-20T02:36:42.957Z,49.47
2023-05-20T02:37:42.961Z,45.60
2023-05-20T02:38:42.958Z,43.51
2023-05-20T02:39:42.926Z,45.12
2023-05-20T02:40:42.936Z,46.57
2023-05-20T02:41:42.915Z,48.66
2023-05-20T02:42:42.904Z,53.17
2023-05-20T02:43:42.907Z,51.24
2023-05-20T02:44:43.835Z,51.72
2023-05-20T02:45:43.205Z,47.37
2023-05-20T02:46:42.875Z,47.21
2023-05-20T02:47:42.901Z,43.02
2023-05-20T02:48:42.867Z,42.70
2023-05-20T02:49:42.869Z,44.47
2023-05-20T02:50:42.902Z,50.76
2023-05-20T02:51:42.846Z,46.25
2023-05-20T02:52:42.920Z,47.70
2023-05-20T02:53:42.831Z,43.18
2023-05-20T02:54:42.838Z,45.44
2023-05-20T02:55:42.801Z,46.89
2023-05-20T02:56:42.902Z,44.63
2023-05-20T02:57:43.413Z,46.08
2023-05-20T02:58:42.794Z,49.47
2023-05-20T02:59:42.775Z,46.41
2023-05-20T03:00:42.745Z,45.76
2023-05-20T03:01:42.822Z,45.12
2023-05-20T03:02:42.783Z,48.66
2023-05-20T03:03:42.739Z,48.66
2023-05-20T03:04:42.859Z,47.70
2023-05-20T03:05:42.704Z,58.97
2023-05-20T03:06:44.338Z,45.76
2023-05-20T03:07:42.720Z,45.60
2023-05-20T03:08:42.760Z,45.12
2023-05-20T03:09:42.681Z,55.43
2023-05-20T03:10:42.675Z,48.66
2023-05-20T03:11:42.688Z,45.12
2023-05-20T03:12:42.687Z,51.08
2023-05-20T03:13:42.667Z,48.66
2023-05-20T03:14:42.691Z,48.98
2023-05-20T03:15:42.701Z,46.89
2023-05-20T03:16:42.646Z,45.76
2023-05-20T03:17:42.715Z,45.28
2023-05-20T03:18:42.619Z,48.18
2023-05-20T03:19:42.628Z,45.92
2023-05-20T03:20:42.627Z,46.41
2023-05-20T03:21:42.608Z,48.02
2023-05-20T03:22:42.592Z,49.95
2023-05-20T03:23:42.590Z,55.75
2023-05-20T03:24:44.435Z,53.50
2023-05-20T03:25:42.545Z,50.76
2023-05-20T03:26:42.557Z,49.63
2023-05-20T03:27:42.538Z,50.27
2023-05-20T03:28:42.541Z,50.92
2023-05-20T03:29:42.528Z,48.02
2023-05-20T03:30:42.528Z,53.33
2023-05-20T03:31:42.535Z,56.07
2023-05-20T03:32:42.617Z,50.11
2023-05-20T03:33:42.491Z,49.95
2023-05-20T03:34:42.930Z,48.34
2023-05-20T03:35:42.500Z,54.62
2023-05-20T03:36:42.468Z,49.47
2023-05-20T03:37:43.350Z,46.08
2023-05-20T03:38:42.448Z,49.15
2023-05-20T03:39:42.449Z,53.66
2023-05-20T03:40:42.453Z,54.30
2023-05-20T03:41:43.344Z,52.85
2023-05-20T03:42:42.427Z,54.30
2023-05-20T03:43:42.402Z,54.95
2023-05-20T03:44:42.454Z,51.40
2023-05-20T03:45:42.392Z,55.43
2023-05-20T03:46:42.401Z,54.46
2023-05-20T03:47:42.402Z,53.66
2023-05-20T03:48:42.385Z,53.66
2023-05-20T03:49:42.397Z,50.76
2023-05-20T03:50:42.345Z,50.27
2023-05-20T03:51:42.349Z,49.15
2023-05-20T03:52:42.343Z,47.37
2023-05-20T03:53:42.353Z,45.44
2023-05-20T03:54:42.345Z,53.82
2023-05-20T03:55:42.341Z,51.88
2023-05-20T03:56:42.311Z,55.91
2023-05-20T03:57:42.296Z,59.62
2023-05-20T03:58:42.327Z,55.91
2023-05-20T03:59:42.283Z,58.81
2023-05-20T04:00:42.280Z,55.91
2023-05-20T04:01:42.293Z,57.52
2023-05-20T04:02:42.344Z,47.05
2023-05-20T04:03:42.408Z,53.01
2023-05-20T04:04:42.236Z,55.91
2023-05-20T04:05:42.264Z,59.78
2023-05-20T04:06:42.244Z,59.62
2023-05-20T04:07:42.225Z,61.39
2023-05-20T04:08:42.225Z,59.14
2023-05-20T04:09:42.218Z,49.63
2023-05-20T04:10:42.195Z,51.88
2023-05-20T04:11:42.176Z,53.01
2023-05-20T04:12:42.843Z,57.85
2023-05-20T04:13:42.175Z,57.52
2023-05-20T04:14:42.232Z,51.24
2023-05-20T04:15:42.206Z,57.52
2023-05-20T04:16:42.167Z,54.30
2023-05-20T04:17:42.181Z,51.72
2023-05-20T04:18:42.168Z,56.40
2023-05-20T04:19:42.129Z,53.66
2023-05-20T04:20:42.138Z,49.47
2023-05-20T04:21:42.116Z,49.95
2023-05-20T04:22:42.125Z,53.01
2023-05-20T04:23:42.110Z,55.27
2023-05-20T04:24:42.092Z,51.88
2023-05-20T04:25:42.211Z,53.82
2023-05-20T04:26:42.066Z,51.24
2023-05-20T04:27:42.081Z,45.60
2023-05-20T04:28:42.144Z,54.30
2023-05-20T04:29:42.041Z,50.27
2023-05-20T04:30:42.036Z,49.95
2023-05-20T04:31:42.086Z,56.72
2023-05-20T04:32:42.055Z,52.05
2023-05-20T04:33:42.008Z,52.05
2023-05-20T04:34:42.022Z,52.85
2023-05-20T04:35:42.020Z,52.69
2023-05-20T04:36:41.982Z,53.82
2023-05-20T04:37:42.011Z,54.14
2023-05-20T04:38:41.974Z,51.40
2023-05-20T04:39:41.987Z,51.88
2023-05-20T04:40:41.956Z,51.08
2023-05-20T04:41:41.958Z,54.95
2023-05-20T04:42:41.934Z,48.66
2023-05-20T04:43:42.967Z,52.21
2023-05-20T04:44:42.536Z,44.63
2023-05-20T04:45:42.957Z,56.24
2023-05-20T04:46:41.932Z,54.14
2023-05-20T04:47:41.990Z,50.11
2023-05-20T04:48:41.927Z,60.59
2023-05-20T04:49:41.885Z,50.43
2023-05-20T04:50:41.900Z,50.60
2023-05-20T04:51:41.883Z,49.31
2023-05-20T04:52:41.928Z,49.47
2023-05-20T04:53:43.190Z,52.37
2023-05-20T04:54:41.833Z,48.66
2023-05-20T04:55:41.868Z,53.01
2023-05-20T04:56:41.828Z,47.70
2023-05-20T04:57:42.381Z,46.25
2023-05-20T04:58:41.828Z,46.08
2023-05-20T04:59:41.826Z,57.36
2023-05-20T05:00:41.804Z,48.98
2023-05-20T05:01:41.882Z,50.60
2023-05-20T05:02:42.449Z,57.04
2023-05-20T05:03:41.791Z,57.04
2023-05-20T05:04:41.815Z,56.88
2023-05-20T05:05:41.780Z,56.40
2023-05-20T05:08:48.728Z,58.49
2023-05-20T05:09:48.728Z,59.46
2023-05-20T05:10:48.723Z,59.94
2023-05-20T05:11:49.816Z,62.04
2023-05-20T05:12:49.811Z,52.21
2023-05-20T05:13:49.794Z,58.01
2023-05-20T05:14:49.796Z,58.97
2023-05-20T05:15:49.908Z,53.50
2023-05-20T05:16:50.610Z,59.94
2023-05-20T05:17:49.798Z,61.07
2023-05-20T05:18:49.785Z,63.16
2023-05-20T05:19:49.764Z,58.81
2023-05-20T05:20:51.613Z,53.82
2023-05-20T05:21:49.749Z,54.95
2023-05-20T05:22:49.748Z,57.52
2023-05-20T05:23:49.701Z,61.07
2023-05-20T05:24:49.708Z,57.69
2023-05-20T05:25:49.693Z,58.01
2023-05-20T05:26:49.685Z,60.42
2023-05-20T05:27:49.685Z,61.55
2023-05-20T05:28:49.683Z,54.79
2023-05-20T05:29:50.654Z,59.94
2023-05-20T05:30:49.655Z,58.01
2023-05-20T05:31:49.694Z,58.65
2023-05-20T05:32:49.767Z,57.69
2023-05-20T05:33:49.638Z,51.88
2023-05-20T05:34:49.645Z,53.33
2023-05-20T05:35:49.656Z,55.27
2023-05-20T05:36:49.718Z,58.97
2023-05-20T05:37:49.635Z,54.95
2023-05-20T05:38:49.586Z,57.36
2023-05-20T05:39:49.603Z,53.82
2023-05-20T05:40:49.581Z,58.17
2023-05-20T05:41:49.565Z,58.97
2023-05-20T05:42:49.559Z,49.47
2023-05-20T05:43:49.555Z,48.66
2023-05-20T05:44:49.565Z,54.30
2023-05-20T05:45:49.558Z,54.14
2023-05-20T05:46:49.560Z,57.52
2023-05-20T05:47:49.596Z,56.72
2023-05-20T05:48:49.507Z,53.82
2023-05-20T05:49:49.525Z,55.43
2023-05-20T05:50:49.494Z,55.75
2023-05-20T05:51:49.497Z,55.75
2023-05-20T05:52:49.471Z,57.04
2023-05-20T05:53:49.498Z,52.21
2023-05-20T05:54:49.450Z,59.94
2023-05-20T05:55:49.451Z,58.97
2023-05-20T05:56:49.472Z,56.24
2023-05-20T05:57:50.438Z,53.98
2023-05-20T05:58:49.460Z,57.04
2023-05-20T05:59:49.437Z,54.14
2023-05-20T06:00:49.437Z,57.85
2023-05-20T06:01:49.441Z,55.43
2023-05-20T06:02:49.671Z,53.82
2023-05-20T06:03:49.453Z,52.05
2023-05-20T06:04:49.388Z,51.40
2023-05-20T06:05:49.377Z,53.33
2023-05-20T06:06:49.373Z,50.76
2023-05-20T06:07:49.370Z,53.98
2023-05-20T06:08:49.348Z,55.91
2023-05-20T06:09:49.347Z,57.52
2023-05-20T06:10:49.346Z,57.52
2023-05-20T06:11:49.378Z,57.52
2023-05-20T06:12:49.326Z,59.94
2023-05-20T06:13:49.310Z,58.33
2023-05-20T06:14:49.289Z,55.11
2023-05-20T06:15:49.275Z,57.52
2023-05-20T06:16:49.338Z,54.30
2023-05-20T06:17:49.281Z,53.66
2023-05-20T06:18:49.325Z,56.56
2023-05-20T06:19:49.716Z,59.62
2023-05-20T06:20:49.246Z,61.55
2023-05-20T06:21:49.228Z,56.40
2023-05-20T06:22:49.230Z,55.59
2023-05-20T06:23:49.222Z,57.36
2023-05-20T06:24:49.228Z,57.69
2023-05-20T06:25:49.213Z,60.59
2023-05-20T06:26:49.178Z,60.10
2023-05-20T06:27:50.181Z,57.36
2023-05-20T06:28:49.199Z,60.59
2023-05-20T06:29:49.179Z,56.40
2023-05-20T06:30:49.234Z,62.36
2023-05-20T06:31:49.136Z,55.91
2023-05-20T06:32:49.217Z,57.52
2023-05-20T06:33:49.161Z,57.69
2023-05-20T06:34:49.207Z,58.49
2023-05-20T06:35:49.119Z,57.52
2023-05-20T06:36:49.197Z,59.46
2023-05-20T06:37:49.163Z,57.36
2023-05-20T06:38:49.112Z,55.43
2023-05-20T06:39:49.682Z,56.88
2023-05-20T06:40:49.068Z,56.40
2023-05-20T06:41:49.093Z,59.62
2023-05-20T06:42:49.622Z,60.91
2023-05-20T06:43:52.598Z,58.01
2023-05-20T06:44:49.074Z,59.62
2023-05-20T06:45:49.069Z,57.04
2023-05-20T06:46:51.668Z,55.59
2023-05-20T06:47:49.750Z,55.75
2023-05-20T06:48:49.020Z,58.81
2023-05-20T06:49:49.020Z,60.10
2023-05-20T06:50:48.997Z,61.07
2023-05-20T06:51:49.082Z,56.40
2023-05-20T06:52:48.991Z,59.46
2023-05-20T06:53:48.970Z,60.42
2023-05-20T06:54:49.635Z,60.26
2023-05-20T06:55:49.756Z,59.94
2023-05-20T06:56:48.943Z,59.46
2023-05-20T06:57:48.941Z,56.40
2023-05-20T06:58:48.929Z,58.33
2023-05-20T06:59:48.937Z,59.94
2023-05-20T07:00:48.913Z,59.62
2023-05-20T07:01:48.989Z,57.85
2023-05-20T07:02:48.935Z,60.42
2023-05-20T07:03:48.937Z,57.04
2023-05-20T07:04:48.878Z,59.14
2023-05-20T07:05:49.703Z,60.59
2023-05-20T07:06:48.863Z,59.62
2023-05-20T07:07:49.861Z,60.10
2023-05-20T07:08:51.647Z,56.24
2023-05-20T07:09:48.847Z,59.46
2023-05-20T07:10:48.837Z,60.59
2023-05-20T07:11:48.830Z,60.59
2023-05-20T07:12:48.825Z,60.26
2023-05-20T07:13:48.846Z,59.46
2023-05-20T07:14:50.758Z,56.07
2023-05-20T07:15:48.826Z,58.65
2023-05-20T07:16:48.821Z,58.49
2023-05-20T07:17:48.808Z,58.81
2023-05-20T07:18:48.789Z,59.78
2023-05-20T07:19:48.768Z,58.01
2023-05-20T07:20:48.751Z,61.55
2023-05-20T07:21:48.760Z,59.46
2023-05-20T07:22:48.765Z,58.81
2023-05-20T07:23:48.731Z,55.91
2023-05-20T07:24:48.725Z,58.81
2023-05-20T07:25:50.231Z,60.59
2023-05-20T07:26:48.715Z,62.36
2023-05-20T07:27:48.702Z,58.49
2023-05-20T07:28:48.724Z,57.04
2023-05-20T07:29:48.695Z,59.94
2023-05-20T07:30:48.669Z,57.04
2023-05-20T07:31:48.761Z,59.30
2023-05-20T07:32:48.680Z,61.23
2023-05-20T07:33:48.640Z,56.24
2023-05-20T07:34:49.221Z,58.17
2023-05-20T07:35:48.662Z,61.07
2023-05-20T07:36:48.636Z,57.52
2023-05-20T07:37:48.618Z,60.26
2023-05-20T07:38:57.055Z,59.62
2023-05-20T07:39:50.595Z,60.10
2023-05-20T07:40:48.582Z,59.46
2023-05-20T07:41:49.212Z,57.69
2023-05-20T07:42:48.599Z,59.62
2023-05-20T07:43:48.585Z,59.94
2023-05-20T07:44:48.581Z,56.72
2023-05-20T07:45:48.617Z,57.52
2023-05-20T07:46:48.549Z,59.62
2023-05-20T07:47:48.568Z,62.52
2023-05-20T07:48:48.549Z,60.42
2023-05-20T07:49:48.532Z,60.42
2023-05-20T07:50:48.509Z,58.01
2023-05-20T07:51:48.496Z,60.10
2023-05-20T07:53:50.505Z,60.59
2023-05-20T07:54:48.483Z,61.55
2023-05-20T07:55:48.484Z,59.78
2023-05-20T07:56:48.456Z,58.65
2023-05-20T07:57:48.437Z,57.36
2023-05-20T07:58:48.468Z,61.07
2023-05-20T07:59:48.449Z,56.40
2023-05-20T08:00:48.424Z,61.23
2023-05-20T08:01:48.507Z,59.94
2023-05-20T08:02:48.545Z,61.39
2023-05-20T08:03:48.481Z,59.94
2023-05-20T08:04:48.402Z,60.75
2023-05-20T08:05:48.378Z,57.85
2023-05-20T08:06:48.399Z,59.62
2023-05-20T08:07:48.370Z,60.10
2023-05-20T08:08:48.434Z,59.62
2023-05-20T08:09:48.353Z,61.07
2023-05-20T08:10:48.349Z,62.36
2023-05-20T08:11:48.355Z,59.46
2023-05-20T08:12:48.342Z,58.49
2023-05-20T08:13:48.342Z,59.30
2023-05-20T08:14:48.310Z,59.46
2023-05-20T08:15:48.299Z,59.62
2023-05-20T08:16:48.381Z,60.42
2023-05-20T08:17:48.332Z,60.10
2023-05-20T08:18:48.336Z,62.68
2023-05-20T08:19:49.149Z,60.91
2023-05-20T08:20:48.267Z,58.17
2023-05-20T08:21:48.252Z,62.04
2023-05-20T08:22:48.250Z,61.55
2023-05-20T08:23:49.228Z,63.00
2023-05-20T08:24:48.256Z,60.59
2023-05-20T08:25:48.233Z,62.20
2023-05-20T08:26:48.206Z,60.10
2023-05-20T08:27:48.241Z,59.62
2023-05-20T08:28:48.229Z,59.94
2023-05-20T08:29:48.192Z,62.84
2023-05-20T08:30:48.234Z,63.16
2023-05-20T08:31:49.730Z,60.10
2023-05-20T08:32:48.178Z,61.87
2023-05-20T08:33:48.156Z,59.78
2023-05-20T08:34:49.150Z,61.87
2023-05-20T08:35:49.112Z,62.04
2023-05-20T08:36:48.132Z,60.42
2023-05-20T08:37:48.252Z,60.91
2023-05-20T08:38:48.135Z,62.52
2023-05-20T08:39:48.114Z,61.55
2023-05-20T08:40:48.094Z,61.07
2023-05-20T08:41:48.112Z,61.87
2023-05-20T08:42:50.746Z,60.75
2023-05-20T08:43:48.088Z,61.71
2023-05-20T08:44:48.065Z,60.75
2023-05-20T08:45:48.056Z,59.46
2023-05-20T08:46:48.120Z,61.07
2023-05-20T08:47:48.086Z,59.94
2023-05-20T08:48:48.077Z,62.04
2023-05-20T08:49:48.066Z,60.10
2023-05-20T08:50:48.054Z,60.26
2023-05-20T08:51:48.049Z,59.94
2023-05-20T08:52:48.016Z,61.07
2023-05-20T08:53:49.001Z,61.55
2023-05-20T08:54:48.024Z,60.59
2023-05-20T08:55:48.005Z,59.94
2023-05-20T08:56:47.992Z,61.71
2023-05-20T08:57:47.973Z,61.55
2023-05-20T08:58:47.957Z,61.55
2023-05-20T08:59:47.966Z,64.13
2023-05-20T09:00:47.971Z,65.10
2023-05-20T09:01:48.048Z,64.13
2023-05-20T09:02:47.942Z,60.10
2023-05-20T09:03:47.927Z,60.10
2023-05-20T09:04:48.002Z,60.59
2023-05-20T09:05:47.901Z,63.81
2023-05-20T09:06:47.908Z,63.97
2023-05-20T09:07:47.924Z,63.49
2023-05-20T09:08:47.900Z,60.26
2023-05-20T09:09:47.904Z,60.10
2023-05-20T09:10:48.906Z,60.91
2023-05-20T09:11:47.856Z,60.26
2023-05-20T09:12:47.846Z,60.59
2023-05-20T09:13:47.865Z,61.23
2023-05-20T09:14:47.868Z,60.59
2023-05-20T09:15:47.858Z,61.07
2023-05-20T09:16:47.844Z,61.39
2023-05-20T09:17:47.826Z,60.59
2023-05-20T09:18:47.817Z,60.75
2023-05-20T09:19:47.789Z,62.52
2023-05-20T09:20:47.811Z,60.10
2023-05-20T09:21:47.796Z,62.68
2023-05-20T09:22:47.780Z,63.33
2023-05-20T09:23:47.762Z,59.94
2023-05-20T09:24:47.761Z,61.87
2023-05-20T09:25:47.752Z,60.91
2023-05-20T09:26:47.733Z,59.46
2023-05-20T09:27:47.752Z,61.39
2023-05-20T09:28:47.750Z,60.42
2023-05-20T09:29:49.170Z,60.91
2023-05-20T09:30:47.731Z,64.45
2023-05-20T09:31:47.765Z,63.00
2023-05-20T09:32:47.700Z,61.07
2023-05-20T09:33:47.679Z,59.14
2023-05-20T09:34:47.662Z,60.26
2023-05-20T09:35:47.658Z,60.26
2023-05-20T09:36:47.672Z,62.20
2023-05-20T09:37:47.703Z,62.84
2023-05-20T09:38:47.709Z,61.55
2023-05-20T09:39:47.620Z,63.16
2023-05-20T09:40:49.162Z,62.04
2023-05-20T09:41:47.621Z,59.94
2023-05-20T09:42:47.600Z,60.59
2023-05-20T09:43:47.607Z,62.68
2023-05-20T09:44:47.581Z,60.91
2023-05-20T09:45:47.601Z,60.59
2023-05-20T09:46:47.570Z,58.97
2023-05-20T09:47:47.585Z,61.39
2023-05-20T09:48:47.585Z,62.68
2023-05-20T09:49:47.570Z,62.36
2023-05-20T09:50:47.547Z,57.52
2023-05-20T09:51:47.553Z,59.78
2023-05-20T09:52:47.562Z,60.10
2023-05-20T09:53:47.533Z,60.59
2023-05-20T09:54:47.504Z,62.20
2023-05-20T09:55:47.552Z,60.59
2023-05-20T09:56:47.513Z,61.07
2023-05-20T09:57:47.489Z,58.81
2023-05-20T09:58:47.499Z,59.14
2023-05-20T09:59:47.486Z,59.62
2023-05-20T10:00:47.478Z,61.55
2023-05-20T10:01:47.493Z,58.33
2023-05-20T10:02:47.497Z,64.29
2023-05-20T10:03:47.580Z,60.91
2023-05-20T10:04:48.231Z,62.84
2023-05-20T10:05:48.413Z,63.49
2023-05-20T10:06:47.409Z,60.26
2023-05-20T10:07:47.399Z,59.78
2023-05-20T10:08:47.395Z,60.59
2023-05-20T10:09:47.393Z,61.39
2023-05-20T10:10:47.391Z,60.59
2023-05-20T10:11:47.349Z,59.94
2023-05-20T10:12:49.270Z,58.97
2023-05-20T10:13:47.403Z,62.04
2023-05-20T10:14:47.339Z,58.65
2023-05-20T10:15:47.357Z,60.91
2023-05-20T10:16:47.343Z,59.62
2023-05-20T10:17:47.347Z,60.42
2023-05-20T10:18:47.329Z,60.59
2023-05-20T10:19:47.301Z,63.16
2023-05-20T10:20:47.287Z,60.75
2023-05-20T10:21:47.292Z,58.49
2023-05-20T10:22:47.272Z,60.75
2023-05-20T10:23:47.287Z,59.78
2023-05-20T10:24:47.411Z,61.07
2023-05-20T10:25:47.282Z,61.87
2023-05-20T10:26:47.800Z,62.52
2023-05-20T10:27:47.236Z,60.42
2023-05-20T10:28:48.195Z,58.97
2023-05-20T10:30:47.208Z,62.52
2023-05-20T10:31:47.229Z,57.85
2023-05-20T10:32:47.289Z,58.97
2023-05-20T10:33:47.306Z,60.42
2023-05-20T10:34:47.165Z,60.59
2023-05-20T10:35:47.176Z,60.10
2023-05-20T10:36:47.150Z,60.91
2023-05-20T10:37:47.153Z,59.46
2023-05-20T10:38:47.142Z,62.36
2023-05-20T10:39:47.143Z,58.97
2023-05-20T10:40:47.125Z,58.65
2023-05-20T10:41:47.111Z,61.07
2023-05-20T10:42:48.114Z,62.84
2023-05-20T10:43:47.105Z,59.94
2023-05-20T10:44:47.098Z,61.39
2023-05-20T10:45:47.119Z,60.75
2023-05-20T10:47:06.692Z,58.97
2023-05-20T10:47:49.100Z,63.16
2023-05-20T10:48:47.114Z,61.07
2023-05-20T10:49:47.059Z,61.23
2023-05-20T10:50:47.037Z,59.46
2023-05-20T10:51:47.046Z,61.87
2023-05-20T10:52:47.029Z,59.14
2023-05-20T10:53:47.800Z,61.23
2023-05-20T10:54:50.193Z,63.65
2023-05-20T10:55:47.000Z,61.55
2023-05-20T10:56:48.820Z,62.20
2023-05-20T10:57:46.987Z,60.59
2023-05-20T10:58:49.827Z,61.23
2023-05-20T10:59:47.818Z,60.75
2023-05-20T11:00:47.989Z,60.59
2023-05-20T11:01:46.982Z,61.39
2023-05-20T11:02:48.119Z,58.65
2023-05-20T11:03:49.883Z,61.07
2023-05-20T11:04:46.925Z,59.78
2023-05-20T11:05:46.897Z,63.97
2023-05-20T11:06:46.917Z,61.23
2023-05-20T11:07:46.910Z,62.36
2023-05-20T11:08:46.905Z,61.55
2023-05-20T11:09:46.881Z,59.62
2023-05-20T11:10:47.982Z,59.46
2023-05-20T11:11:48.723Z,57.36
2023-05-20T11:12:47.303Z,62.52
2023-05-20T11:13:46.851Z,60.26
2023-05-20T11:14:46.853Z,59.14
2023-05-20T11:15:47.711Z,61.23
2023-05-20T11:16:46.858Z,61.87
2023-05-20T11:17:46.857Z,61.07
2023-05-20T11:18:46.815Z,61.23
2023-05-20T11:19:46.832Z,60.91
2023-05-20T11:20:46.837Z,58.49
2023-05-20T11:21:46.791Z,57.04
2023-05-20T11:22:46.776Z,60.42
2023-05-20T11:23:47.304Z,59.46
2023-05-20T11:24:46.764Z,60.42
2023-05-20T11:25:46.761Z,61.23
2023-05-20T11:26:46.753Z,60.75
2023-05-20T11:27:46.765Z,59.14
2023-05-20T11:28:46.739Z,59.78
2023-05-20T11:29:46.751Z,60.91
2023-05-20T11:30:46.704Z,61.87
2023-05-20T11:31:46.754Z,61.07
2023-05-20T11:32:46.815Z,61.55
2023-05-20T11:33:47.720Z,58.01
2023-05-20T11:34:46.724Z,59.46
2023-05-20T11:35:46.686Z,56.56
2023-05-20T11:36:46.662Z,60.59
2023-05-20T11:37:46.649Z,61.39
2023-05-20T11:38:46.645Z,60.10
2023-05-20T11:39:47.300Z,59.30
2023-05-20T11:40:51.007Z,58.17
2023-05-20T11:41:48.636Z,60.26
2023-05-20T11:42:46.621Z,60.10
2023-05-20T11:43:46.611Z,60.59
2023-05-20T11:44:46.592Z,59.46
2023-05-20T11:45:46.634Z,60.75
2023-05-20T11:46:46.595Z,58.97
2023-05-20T11:47:47.253Z,60.10
2023-05-20T11:48:46.563Z,61.23
2023-05-20T11:49:46.591Z,62.20
2023-05-20T11:50:46.583Z,59.46
2023-05-20T11:51:47.229Z,62.68
2023-05-20T11:52:46.538Z,59.46
2023-05-20T11:53:46.533Z,63.00
2023-05-20T11:54:47.268Z,59.46
2023-05-20T11:55:46.512Z,63.16
2023-05-20T11:56:46.520Z,64.78
2023-05-20T11:57:46.492Z,60.59
2023-05-20T11:58:46.543Z,62.36
2023-05-20T11:59:46.488Z,59.62
2023-05-20T12:00:51.660Z,63.33
2023-05-20T12:01:48.465Z,61.71
2023-05-20T12:02:46.520Z,61.07
2023-05-20T12:03:46.526Z,60.75
2023-05-20T12:04:46.561Z,62.04
2023-05-20T12:05:46.436Z,58.17
2023-05-20T12:06:46.425Z,60.59
2023-05-20T12:07:46.412Z,60.59
2023-05-20T12:08:46.425Z,56.24
2023-05-20T12:09:46.399Z,58.81
2023-05-20T12:10:46.401Z,59.94
2023-05-20T12:11:47.326Z,58.81
2023-05-20T12:12:46.376Z,61.23
2023-05-20T12:13:46.385Z,60.10
2023-05-20T12:14:46.355Z,60.10
2023-05-20T12:15:46.406Z,59.78
2023-05-20T12:16:46.353Z,58.33
2023-05-20T12:17:46.354Z,62.68
2023-05-20T12:18:46.345Z,62.52
2023-05-20T12:19:46.373Z,59.94
2023-05-20T12:20:46.368Z,60.91
2023-05-20T12:21:46.312Z,60.91
2023-05-20T12:22:46.291Z,60.59
2023-05-20T12:23:46.809Z,61.23
2023-05-20T12:24:46.285Z,62.04
2023-05-20T12:25:47.268Z,62.68
2023-05-20T12:26:46.280Z,58.97
2023-05-20T12:27:46.250Z,60.10
2023-05-20T12:28:48.290Z,59.46
2023-05-20T12:29:46.269Z,60.10
2023-05-20T12:30:46.245Z,62.04
2023-05-20T12:31:46.340Z,60.91
2023-05-20T12:32:46.213Z,60.91
2023-05-20T12:33:46.245Z,58.17
2023-05-20T12:34:46.196Z,59.78
2023-05-20T12:35:46.172Z,60.42
2023-05-20T12:36:46.163Z,60.59
2023-05-20T12:37:47.723Z,57.85
2023-05-20T12:38:46.177Z,60.91
2023-05-20T12:39:46.188Z,59.78
2023-05-20T12:40:46.139Z,59.46
2023-05-20T12:41:46.143Z,60.91
2023-05-20T12:42:46.132Z,60.42
2023-05-20T12:43:46.121Z,61.39
2023-05-20T12:44:46.100Z,60.91
2023-05-20T12:45:46.107Z,60.91
2023-05-20T12:46:46.108Z,59.78
2023-05-20T12:47:46.112Z,60.26
2023-05-20T12:48:46.072Z,60.91
2023-05-20T12:49:46.066Z,60.75
2023-05-20T12:50:46.065Z,61.39
2023-05-20T12:51:46.068Z,59.30
2023-05-20T12:52:46.047Z,59.62
2023-05-20T12:53:46.075Z,60.91
2023-05-20T12:54:46.024Z,59.94
2023-05-20T12:55:46.030Z,60.75
2023-05-20T12:56:46.017Z,61.87
2023-05-20T12:57:46.006Z,60.59
2023-05-20T12:58:46.820Z,61.71